Time;durP1;ratioP1;P1;durP2;ratioP2;P2;SDS_P1;SDS_P2;PMS_P1;PMS_P2;Temp;Humidity;BMP_temperature;BMP_pressure;BME280_temperature;BME280_humidity;BME280_pressure;Samples;Min_cycle;Max_cycle;Signal;HPM_P1;HPM_P2
2022/10/08 06:19:26;;;;;;;;;;;10.50;99.90;;;;;;6238356;22;20349;-81
2022/10/08 06:22:27;;;;;;;;;;;10.40;99.90;;;;;;6269056;22;19919;-78
2022/10/08 06:24:53;;;;;;;;;;;10.60;99.90;;;;;;6220620;23;19915;-76
2022/10/08 06:27:18;;;;;;;;;;;10.70;99.90;;;;;;6244989;23;19923;-76
2022/10/08 06:29:44;;;;;;;;;;;10.70;99.90;;;;;;6218167;23;19923;-75
2022/10/08 06:32:10;;;;;;;;;;;10.70;99.90;;;;;;6218962;23;19916;-76
2022/10/08 06:34:35;;;;;;;;;;;10.70;99.90;;;;;;6218920;23;19960;-75
2022/10/08 06:37:01;;;;;;;;;;;10.60;99.90;;;;;;6218816;23;20053;-76
2022/10/08 06:39:29;;;;;;;;;;;10.50;99.90;;;;;;6219737;23;19922;-76
2022/10/08 06:41:55;;;;;;;;;;;10.50;99.90;;;;;;6219962;23;19951;-76
2022/10/08 06:44:23;;;;;;;;;;;10.40;99.90;;;;;;6220490;23;19966;-77
2022/10/08 06:46:58;;;;;;;;;;;10.40;99.90;;;;;;6222250;23;19951;-77
2022/10/08 06:49:27;;;;;;;;;;;10.30;99.90;;;;;;6219697;23;20219;-77
2022/10/08 06:51:57;;;;;;;;;;;10.30;99.90;;;;;;6220082;23;19942;-76
2022/10/08 06:54:31;;;;;;;;;;;10.30;99.90;;;;;;6220629;23;19990;-78
2022/10/08 06:57:08;;;;;;;;;;;10.40;99.90;;;;;;6220637;23;20199;-77
2022/10/08 06:59:40;;;;;;;;;;;10.40;99.90;;;;;;6220228;23;19916;-78
2022/10/08 07:02:09;;;;;;;;;;;10.40;99.90;;;;;;6219729;23;19949;-77
2022/10/08 08:05:53;;;;;;;;;;;13.60;99.90;;;;;;6275322;22;19919;-81
2022/10/08 08:08:36;;;;;;;;;;;13.70;99.90;;;;;;6184130;23;19920;-78
2022/10/08 08:53:10;;;;;;;;;;;13.70;99.90;;;;;;5922849;24;19994;-71
2022/10/08 08:55:40;;;;;;;;;;;13.70;99.90;;;;;;5925864;24;20007;-71
2022/10/08 08:58:12;;;;;;;;;;;13.80;99.90;;;;;;6045884;23;19955;-71
2022/10/08 09:00:43;;;;;;;;;;;13.90;99.90;;;;;;6244014;23;19957;-71
2022/10/08 09:03:15;;;;;;;;;;;14.00;99.90;;;;;;6247449;22;19920;-71
2022/10/08 09:05:43;;;;;;;;;;;14.10;99.90;;;;;;6228018;23;19983;-69
2022/10/08 09:08:21;;;;;;;;;;;14.10;99.90;;;;;;6235143;23;19935;-78
2022/10/08 09:11:01;;;;;;;;;;;14.30;99.90;;;;;;6219713;23;19947;-78
2022/10/08 09:13:36;;;;;;;;;;;14.40;99.90;;;;;;6219810;23;19904;-77
2022/10/08 09:16:04;;;;;;;;;;;14.50;99.90;;;;;;6196543;23;19920;-77
2022/10/08 09:18:30;;;;;;;;;;;14.70;99.90;;;;;;6216773;23;19916;-77
2022/10/08 09:20:56;;;;;;;;;;;14.70;99.90;;;;;;6217326;23;19986;-78
2022/10/08 09:23:23;;;;;;;;;;;14.70;99.90;;;;;;6191931;23;19939;-77
2022/10/08 09:25:56;;;;;;;;;;;14.70;99.90;;;;;;6191656;23;19915;-79
2022/10/08 09:28:41;;;;;;;;;;;14.80;99.90;;;;;;6191898;23;19942;-77
2022/10/08 09:31:18;;;;;;;;;;;14.80;99.90;;;;;;6216268;23;19943;-77
2022/10/08 09:33:44;;;;;;;;;;;14.80;99.90;;;;;;6191657;23;20009;-76
2022/10/08 09:36:11;;;;;;;;;;;14.90;99.90;;;;;;6218790;23;20215;-75
2022/10/08 09:38:37;;;;;;;;;;;14.90;99.90;;;;;;6197183;23;19939;-75
2022/10/08 09:41:14;;;;;;;;;;;15.00;99.90;;;;;;6193448;23;19916;-77
2022/10/08 09:43:40;;;;;;;;;;;15.00;99.90;;;;;;6190992;23;19997;-77
2022/10/08 09:46:10;;;;;;;;;;;15.00;99.90;;;;;;6191039;23;20273;-78
2022/10/08 09:48:36;;;;;;;;;;;15.00;99.90;;;;;;6190865;23;19915;-80
2022/10/08 09:51:05;;;;;;;;;;;15.10;99.90;;;;;;6216561;23;19927;-80
2022/10/08 09:53:34;;;;;;;;;;;15.10;99.90;;;;;;6190989;23;19915;-77
2022/10/08 09:56:01;;;;;;;;;;;15.20;99.90;;;;;;6216318;23;19966;-78
2022/10/08 09:58:32;;;;;;;;;;;15.10;99.90;;;;;;6191826;23;19950;-78
2022/10/08 10:01:00;;;;;;;;;;;14.90;99.90;;;;;;6190621;23;19916;-70
2022/10/08 10:03:50;;;;;;;;;;;14.80;99.90;;;;;;6229790;22;19943;-73
2022/10/08 10:06:23;;;;;;;;;;;14.80;99.90;;;;;;6281427;22;19922;-74
2022/10/08 10:08:53;;;;;;;;;;;14.80;99.90;;;;;;6254375;22;19977;-72
2022/10/08 11:12:19;;;;;;;;;;;15.40;99.90;;;;;;6169258;22;19948;-71
2022/10/08 14:44:52;;;;;;;;;;;;;;;;;;;;;
2022/10/08 14:47:50;;;;;;;;;;;;;;;;;;;;;
2022/10/08 15:00:44;;;;;;;;;;;14.60;99.90;;;;;;6244170;23;19912;-78
2022/10/08 15:03:10;;;;;;;;;;;14.50;99.90;;;;;;6218384;23;19916;-73
2022/10/08 15:09:15;;;;;;;;;;;14.40;99.90;;;;;;6182313;23;19979;-77
2022/10/08 15:15:07;;;;;;;;;;;14.20;99.90;;;;;;6157737;23;20359;-75
2022/10/08 15:17:38;;;;;;;;;;;14.20;99.90;;;;;;6167525;22;19943;-77
2022/10/08 15:20:06;;;;;;;;;;;14.20;99.90;;;;;;6219195;23;19973;-78
2022/10/08 15:22:32;;;;;;;;;;;14.10;99.90;;;;;;6218981;23;19916;-73
2022/10/08 15:24:58;;;;;;;;;;;14.10;99.90;;;;;;6243699;23;19985;-76
2022/10/08 15:27:26;;;;;;;;;;;14.10;99.90;;;;;;6244129;23;19962;-75
2022/10/08 15:29:51;;;;;;;;;;;14.00;99.90;;;;;;6218511;23;19993;-77
2022/10/08 15:32:42;;;;;;;;;;;;;;;;;;;;;
2022/10/08 15:35:11;;;;;;;;;;;13.90;99.90;;;;;;6220528;23;19931;-74
2022/10/08 15:37:40;;;;;;;;;;;13.80;99.90;;;;;;6245714;23;20342;-77
2022/10/08 15:40:06;;;;;;;;;;;13.70;99.90;;;;;;6219455;23;20271;-72
2022/10/08 15:42:31;;;;;;;;;;;13.70;99.90;;;;;;6243602;22;19958;-73
2022/10/08 15:45:25;;;;;;;;;;;13.70;99.90;;;;;;6269220;22;19916;-78
2022/10/08 15:47:51;;;;;;;;;;;13.60;99.90;;;;;;6243844;23;20063;-75
2022/10/08 15:53:47;;;;;;;;;;;13.50;99.90;;;;;;6245225;22;19954;-77
2022/10/08 19:15:23;;;;;;;;;;;;;;;;;;;;;
